Time;durP1;ratioP1;P1;durP2;ratioP2;P2;SDS_P1;SDS_P2;PMS_P1;PMS_P2;Temp;Humidity;BMP_temperature;BMP_pressure;BME280_temperature;BME280_humidity;BME280_pressure;Samples;Min_cycle;Max_cycle;Signal;HPM_P1;HPM_P2
2022/04/05 09:34:12;;;;;;;4.67;1.80;;;;;;;5.10;94.66;97763.94;4223332;77;279509;-88
2022/04/05 09:40:35;;;;;;;3.72;2.08;;;;;;;5.12;94.91;97768.99;4135981;85;21088;-85
2022/04/05 09:46:40;;;;;;;5.65;1.87;;;;;;;5.04;94.83;97770.05;4134072;85;21492;-86
2022/04/05 09:52:42;;;;;;;3.95;2.05;;;;;;;4.96;94.97;97771.09;4144737;85;21095;-87
2022/04/05 09:59:04;;;;;;;3.90;2.10;;;;;;;5.06;95.12;97775.30;4141498;85;21060;-84
2022/04/05 10:05:12;;;;;;;3.85;1.95;;;;;;;5.06;94.61;97772.58;4144038;85;21084;-88
2022/04/05 10:11:15;;;;;;;6.45;2.40;;;;;;;5.12;94.41;97775.17;4139023;85;21095;-87
2022/04/05 10:17:22;;;;;;;3.45;1.92;;;;;;;5.16;94.03;97786.88;4138719;85;21083;-89
2022/04/05 10:23:25;;;;;;;4.22;1.95;;;;;;;5.13;94.18;97793.03;4140315;85;21091;-86
2022/04/05 10:29:31;;;;;;;3.70;2.22;;;;;;;5.07;94.32;97798.58;4129514;85;21547;-87
2022/04/05 10:35:57;;;;;;;4.80;2.33;;;;;;;5.02;94.11;97795.39;4138519;85;21156;-86
2022/04/05 10:42:20;;;;;;;3.45;1.80;;;;;;;5.11;94.17;97795.33;4140654;85;21005;-86
2022/04/05 10:48:20;;;;;;;6.80;3.00;;;;;;;5.32;94.25;97790.19;4134177;85;21068;-85
2022/04/05 10:54:25;;;;;;;7.80;2.33;;;;;;;5.48;94.12;97792.70;4124792;85;21054;-86
2022/04/05 11:00:26;;;;;;;5.67;2.40;;;;;;;5.60;93.77;97792.44;4134765;85;21074;-86
2022/04/05 11:07:02;;;;;;;4.47;2.58;;;;;;;5.62;93.70;97807.20;4123371;85;21067;-85
2022/04/05 11:13:19;;;;;;;4.15;2.50;;;;;;;5.59;91.70;97809.30;4137346;85;21143;-88
2022/04/05 11:19:27;;;;;;;6.47;3.17;;;;;;;5.55;92.18;97813.91;4143894;85;21138;-87
2022/04/05 11:25:30;;;;;;;3.80;2.58;;;;;;;5.56;92.79;97815.47;4135211;85;21059;-86
2022/04/05 11:31:40;;;;;;;5.53;3.50;;;;;;;5.61;92.21;97821.14;4138605;85;21091;-89
2022/04/05 11:37:41;;;;;;;5.78;3.40;;;;;;;5.65;91.14;97823.34;4142852;85;22043;-87
2022/04/05 11:43:47;;;;;;;5.12;3.22;;;;;;;5.77;91.89;97823.87;4135087;85;21064;-86
2022/04/05 11:49:51;;;;;;;4.60;3.02;;;;;;;5.84;90.67;97824.56;4133216;85;21013;-86
2022/04/05 11:56:24;;;;;;;5.25;3.35;;;;;;;5.98;90.42;97826.06;4138260;85;21074;-86
2022/04/05 12:02:29;;;;;;;5.75;3.85;;;;;;;6.16;89.73;97819.66;4139183;85;21043;-88
2022/04/05 12:08:31;;;;;;;6.75;3.47;;;;;;;6.26;89.07;97826.34;4135586;85;21139;-87
2022/04/05 12:14:34;;;;;;;6.67;4.28;;;;;;;6.34;89.38;97823.90;4142543;85;21682;-87
2022/04/05 12:20:36;;;;;;;12.28;6.65;;;;;;;6.28;88.42;97816.65;4138733;85;21092;-86
2022/04/05 12:26:38;;;;;;;9.18;5.53;;;;;;;6.30;88.40;97827.94;4137609;85;21611;-87
2022/04/05 12:32:40;;;;;;;8.30;5.17;;;;;;;6.28;88.31;97835.67;4143232;85;21052;-87
2022/04/05 12:38:43;;;;;;;10.13;5.90;;;;;;;6.21;88.45;97834.83;4150162;84;21044;-87
2022/04/05 12:44:48;;;;;;;9.03;6.20;;;;;;;6.14;87.62;97830.10;4164940;84;21055;-89
2022/04/05 12:50:52;;;;;;;10.18;6.20;;;;;;;6.12;87.96;97822.89;4151675;84;21186;-88
2022/04/05 12:56:53;;;;;;;8.15;5.25;;;;;;;6.06;88.25;97829.83;4155815;85;21079;-87
2022/04/05 13:03:00;;;;;;;12.03;5.65;;;;;;;6.04;88.00;97819.93;4162509;84;21050;-88
2022/04/05 13:09:09;;;;;;;8.40;5.50;;;;;;;6.07;87.66;97812.39;4156685;84;21685;-87
2022/04/05 13:15:12;;;;;;;8.88;5.58;;;;;;;6.16;87.47;97814.22;4158632;84;21076;-88
2022/04/05 13:21:21;;;;;;;7.97;6.30;;;;;;;6.23;87.64;97817.58;4153797;85;21992;-88
2022/04/05 13:27:24;;;;;;;9.30;6.25;;;;;;;6.27;87.02;97812.38;4150997;84;21086;-86
2022/04/05 13:33:26;;;;;;;8.78;5.87;;;;;;;6.24;87.31;97810.41;4139108;84;21151;-88
2022/04/05 13:39:33;;;;;;;8.85;6.08;;;;;;;6.28;86.82;97819.37;4137971;85;21079;-88
2022/04/05 13:45:34;;;;;;;8.83;6.17;;;;;;;6.29;87.05;97813.36;4125091;85;21871;-87
2022/04/05 13:51:37;;;;;;;10.82;6.87;;;;;;;6.27;86.70;97819.74;4124194;85;21063;-89
2022/04/05 13:57:40;;;;;;;10.05;6.65;;;;;;;6.30;86.46;97813.55;4129377;85;21055;-87
2022/04/05 14:03:42;;;;;;;10.10;6.78;;;;;;;6.43;86.39;97811.34;4134309;85;21611;-88
2022/04/05 14:09:44;;;;;;;9.95;6.83;;;;;;;6.50;86.32;97811.41;4130664;85;21075;-88
2022/04/05 14:15:47;;;;;;;11.65;7.25;;;;;;;6.57;86.45;97798.64;4130440;85;21017;-87
2022/04/05 14:21:48;;;;;;;10.58;6.95;;;;;;;6.75;86.36;97804.98;4132114;85;21040;-89
2022/04/05 14:27:49;;;;;;;11.48;7.00;;;;;;;6.86;86.28;97807.20;4132018;85;21046;-86
2022/04/05 14:33:52;;;;;;;12.18;7.12;;;;;;;6.95;85.07;97804.16;4129454;85;21064;-86
2022/04/05 14:39:53;;;;;;;11.22;6.37;;;;;;;7.02;85.41;97796.81;4132623;85;21075;-87
2022/04/05 14:45:55;;;;;;;11.25;6.60;;;;;;;7.15;84.71;97800.78;4131547;85;21052;-86
2022/04/05 14:51:57;;;;;;;9.53;6.37;;;;;;;7.20;84.88;97806.44;4134377;85;21092;-86
2022/04/05 14:57:59;;;;;;;10.45;6.75;;;;;;;7.22;83.52;97798.08;4136115;85;21009;-87
2022/04/05 15:04:01;;;;;;;9.35;6.67;;;;;;;7.28;84.22;97798.52;4134451;85;21028;-86
2022/04/05 15:10:10;;;;;;;13.68;7.58;;;;;;;7.35;82.69;97791.16;4132459;85;21127;-86
2022/04/05 15:16:12;;;;;;;11.48;7.80;;;;;;;7.41;83.68;97795.06;4135374;85;21946;-87
2022/04/05 15:22:18;;;;;;;11.43;7.28;;;;;;;7.51;83.23;97805.81;4134296;85;21410;-87
2022/04/05 15:28:24;;;;;;;8.58;7.08;;;;;;;7.59;83.06;97802.74;4134946;85;21052;-87
2022/04/05 15:34:32;;;;;;;9.30;6.47;;;;;;;7.73;82.21;97804.16;4138227;85;21452;-89
2022/04/05 15:40:35;;;;;;;12.28;6.78;;;;;;;7.76;81.90;97814.28;4139035;85;21135;-87
2022/04/05 15:46:37;;;;;;;12.13;7.00;;;;;;;7.78;80.83;97806.48;4140769;85;21092;-86
2022/04/05 15:52:39;;;;;;;12.07;7.65;;;;;;;7.70;80.38;97819.91;4142770;84;21079;-86
2022/04/05 15:58:40;;;;;;;10.35;6.97;;;;;;;7.49;81.19;97814.93;4140328;85;21091;-88
2022/04/05 16:04:42;;;;;;;13.53;7.30;;;;;;;7.30;81.08;97820.67;4144964;85;21071;-86
2022/04/05 16:10:44;;;;;;;9.10;6.87;;;;;;;7.14;81.18;97824.30;4143165;84;21094;-87
2022/04/05 16:16:46;;;;;;;11.60;7.75;;;;;;;7.06;80.99;97825.41;4142466;84;21058;-89
2022/04/05 16:22:48;;;;;;;11.00;7.30;;;;;;;7.00;81.08;97826.93;4142671;84;21004;-88
2022/04/05 16:28:51;;;;;;;14.93;7.83;;;;;;;6.92;81.28;97831.52;4132143;84;21074;-88
2022/04/05 16:34:52;;;;;;;13.25;7.62;;;;;;;6.88;81.26;97838.10;4141153;85;21048;-88
2022/04/05 16:40:54;;;;;;;12.23;8.55;;;;;;;6.85;81.26;97854.61;4136172;84;21051;-87
2022/04/05 16:53:31;;;;;;;14.13;8.50;;;;;;;6.75;81.44;97851.22;4130535;85;21331;-88
2022/04/05 16:59:32;;;;;;;16.60;9.35;;;;;;;6.74;81.49;97864.63;4140782;85;21514;-87
2022/04/05 17:05:35;;;;;;;15.85;9.25;;;;;;;6.74;81.50;97861.11;4140128;84;21027;-87
2022/04/05 17:11:36;;;;;;;13.75;8.65;;;;;;;6.68;81.53;97855.25;4142828;84;20968;-87
2022/04/05 17:17:38;;;;;;;15.38;9.23;;;;;;;6.62;81.72;97849.97;4138694;84;21356;-88
2022/04/05 17:23:41;;;;;;;15.95;9.58;;;;;;;6.63;81.73;97855.59;4138510;85;21023;-88
2022/04/05 17:29:42;;;;;;;18.48;9.73;;;;;;;6.59;81.80;97862.16;4143214;85;21493;-87
2022/04/05 17:35:49;;;;;;;21.20;12.28;;;;;;;6.58;81.71;97857.89;4134353;85;21134;-90
2022/04/05 17:41:47;;;;;;;24.92;13.40;;;;;;;6.52;81.75;97862.88;4124641;85;20976;-88
2022/04/05 17:47:48;;;;;;;19.82;11.20;;;;;;;6.47;81.89;97874.09;4127587;85;21475;-88
2022/04/05 17:53:51;;;;;;;20.45;10.63;;;;;;;6.42;82.11;97882.61;4131313;85;21048;-89
2022/04/05 17:59:52;;;;;;;17.23;9.83;;;;;;;6.43;82.11;97886.09;4135689;85;21040;-88
2022/04/05 18:05:54;;;;;;;16.07;9.88;;;;;;;6.44;82.42;97895.23;4127781;85;21027;-88
2022/04/05 18:11:55;;;;;;;19.52;10.78;;;;;;;6.44;82.04;97894.47;4133722;85;21974;-87
2022/04/05 18:17:57;;;;;;;18.35;10.88;;;;;;;6.43;81.99;97905.91;4128974;85;21872;-88
2022/04/05 18:24:00;;;;;;;19.02;10.78;;;;;;;6.41;82.14;97906.85;4125952;85;21883;-87
2022/04/05 18:30:03;;;;;;;18.77;11.00;;;;;;;6.33;82.05;97906.58;4135429;85;21638;-89
2022/04/05 18:36:05;;;;;;;23.62;11.73;;;;;;;6.36;82.31;97922.14;4138004;85;21103;-89
2022/04/05 18:42:06;;;;;;;17.40;8.90;;;;;;;6.34;82.30;97923.87;4141090;85;21469;-88
2022/04/05 18:48:08;;;;;;;17.12;9.80;;;;;;;6.29;82.50;97936.45;4137779;84;21027;-88
2022/04/05 18:54:09;;;;;;;16.48;9.35;;;;;;;6.25;82.42;97934.83;4135442;85;21525;-88
2022/04/05 19:00:12;;;;;;;18.32;9.68;;;;;;;6.17;82.70;97929.89;4138963;84;20955;-88
2022/04/05 19:06:14;;;;;;;15.65;9.90;;;;;;;6.14;82.97;97941.51;4137758;85;20995;-87
2022/04/05 19:12:15;;;;;;;17.90;9.90;;;;;;;6.13;82.96;97944.59;4122754;84;21250;-87
2022/04/05 19:18:18;;;;;;;16.60;9.53;;;;;;;6.13;83.17;97947.31;4134115;84;21113;-87
2022/04/05 19:24:19;;;;;;;16.75;9.63;;;;;;;6.16;83.23;97954.72;4138841;84;21547;-88
2022/04/05 19:30:24;;;;;;;19.90;10.35;;;;;;;6.13;83.30;97949.47;4140361;84;21015;-87
2022/04/05 19:36:25;;;;;;;15.23;9.15;;;;;;;6.12;83.31;97945.16;4128940;85;21066;-88
2022/04/05 19:42:26;;;;;;;15.58;9.18;;;;;;;6.12;83.48;97941.09;4125923;85;21067;-88
2022/04/05 19:48:30;;;;;;;16.30;8.98;;;;;;;6.12;83.44;97939.73;4127443;85;21028;-89
2022/04/05 19:54:31;;;;;;;14.35;9.05;;;;;;;6.12;83.62;97941.09;4129346;85;21015;-90
2022/04/05 20:00:34;;;;;;;15.75;8.25;;;;;;;6.15;83.68;97951.81;4125293;85;21536;-88
2022/04/05 20:06:36;;;;;;;13.10;8.15;;;;;;;6.20;83.77;97946.05;4131055;85;20987;-86
2022/04/05 20:12:37;;;;;;;12.65;7.70;;;;;;;6.19;83.79;97945.27;4128549;85;21071;-87
2022/04/05 20:18:51;;;;;;;11.25;6.67;;;;;;;6.22;83.83;97947.80;4123638;85;21299;-88
2022/04/05 20:24:45;;;;;;;12.05;7.20;;;;;;;6.29;83.87;97945.97;4128831;85;21043;-87
2022/04/05 20:30:47;;;;;;;10.68;6.72;;;;;;;6.33;84.04;97959.01;4130432;85;21067;-88
2022/04/05 20:36:49;;;;;;;10.25;6.17;;;;;;;6.38;84.17;97949.17;4123938;85;21134;-88
2022/04/05 20:42:50;;;;;;;9.93;6.50;;;;;;;6.40;84.18;97955.59;4124828;85;21063;-88
2022/04/05 20:48:52;;;;;;;12.07;7.17;;;;;;;6.39;84.38;97954.80;4124338;85;21166;-88
2022/04/05 20:54:53;;;;;;;12.90;5.97;;;;;;;6.44;84.56;97956.99;4127686;85;21352;-90
2022/04/05 21:00:56;;;;;;;8.98;6.58;;;;;;;6.52;84.52;97956.68;4125575;85;21066;-87
2022/04/05 21:06:57;;;;;;;9.43;5.55;;;;;;;6.56;84.59;97948.00;4131919;85;21542;-90
2022/04/05 21:12:59;;;;;;;9.85;6.10;;;;;;;6.63;84.68;97949.98;4128650;85;21058;-88
2022/04/05 21:19:00;;;;;;;10.63;6.30;;;;;;;6.69;84.74;97955.31;4127751;85;21015;-88
2022/04/05 21:25:03;;;;;;;8.58;6.22;;;;;;;6.78;84.77;97952.46;4124898;85;21075;-88
2022/04/05 21:31:04;;;;;;;10.63;6.72;;;;;;;6.80;84.88;97951.52;4131851;85;21051;-90
2022/04/05 21:37:09;;;;;;;9.90;6.65;;;;;;;6.85;85.00;97947.67;4132860;84;21067;-87
2022/04/05 21:43:10;;;;;;;9.58;5.95;;;;;;;6.90;85.30;97943.25;4144563;85;21999;-88
2022/04/05 21:49:12;;;;;;;9.10;5.80;;;;;;;6.93;85.41;97943.86;4132644;84;21085;-85
2022/04/05 21:55:13;;;;;;;8.30;6.03;;;;;;;6.91;85.74;97945.59;4139635;84;22119;-87
2022/04/05 22:01:15;;;;;;;11.40;6.45;;;;;;;6.88;85.66;97946.91;4141092;84;21052;-88
2022/04/05 22:07:18;;;;;;;8.98;6.35;;;;;;;6.85;85.92;97944.95;4149666;84;21200;-87
2022/04/05 22:13:19;;;;;;;10.25;6.35;;;;;;;6.84;86.14;97944.19;4134708;85;21151;-88
2022/04/05 22:19:22;;;;;;;9.55;6.12;;;;;;;6.79;86.21;97936.36;4143758;85;20984;-87
2022/04/05 22:25:23;;;;;;;11.43;6.55;;;;;;;6.75;86.59;97936.13;4141289;85;20952;-88
2022/04/05 22:31:27;;;;;;;10.30;6.47;;;;;;;6.71;86.78;97928.50;4122132;84;21023;-87
2022/04/05 22:37:29;;;;;;;7.90;5.95;;;;;;;6.67;86.49;97928.46;4090474;85;21070;-87
2022/04/05 22:43:30;;;;;;;8.48;6.17;;;;;;;6.64;86.58;97913.49;4078806;86;21039;-87
2022/04/05 22:49:32;;;;;;;9.23;6.05;;;;;;;6.62;86.87;97923.39;4081415;86;22005;-88
2022/04/05 22:55:34;;;;;;;10.95;6.87;;;;;;;6.58;86.95;97915.00;4081052;86;21063;-87
2022/04/05 23:01:37;;;;;;;9.30;5.85;;;;;;;6.45;87.13;97919.92;4078118;86;21907;-87
2022/04/05 23:07:39;;;;;;;8.43;6.10;;;;;;;6.36;87.17;97920.77;4083515;86;21050;-86
2022/04/05 23:13:40;;;;;;;8.08;6.28;;;;;;;6.36;87.21;97926.21;4079186;86;21103;-88
2022/04/05 23:19:42;;;;;;;8.35;6.03;;;;;;;6.37;87.29;97920.41;4080146;86;22041;-88
2022/04/05 23:25:44;;;;;;;8.10;6.12;;;;;;;6.39;87.42;97922.18;4078859;86;21114;-88
2022/04/05 23:32:02;;;;;;;7.90;5.30;;;;;;;6.41;87.59;97919.09;4080488;86;21070;-88
2022/04/05 23:37:48;;;;;;;8.28;5.72;;;;;;;6.45;87.56;97924.00;4126190;85;21307;-88
2022/04/05 23:43:50;;;;;;;9.13;5.55;;;;;;;6.52;87.59;97923.27;4126433;85;21049;-88
2022/04/05 23:49:51;;;;;;;7.83;5.42;;;;;;;6.59;87.70;97909.75;4126872;85;21111;-87
2022/04/05 23:55:53;;;;;;;6.83;4.90;;;;;;;6.66;87.64;97916.59;4128091;85;21140;-86
